Time;durP1;ratioP1;P1;durP2;ratioP2;P2;SDS_P1;SDS_P2;PMS_P1;PMS_P2;Temp;Humidity;BMP_temperature;BMP_pressure;BME280_temperature;BME280_humidity;BME280_pressure;Samples;Min_cycle;Max_cycle;Signal;HPM_P1;HPM_P2
2022/05/15 00:01:53;;;;;;;7.70;3.72;;;14.70;1.00;;;;;;7367940;19;20049;-59
2022/05/15 00:04:23;;;;;;;7.88;4.43;;;14.60;1.00;;;;;;7369657;19;20124;-59
2022/05/15 00:06:53;;;;;;;6.97;4.57;;;14.70;1.00;;;;;;7367880;19;20344;-59
2022/05/15 00:09:26;;;;;;;5.75;3.70;;;14.60;1.00;;;;;;7366796;19;20018;-59
2022/05/15 00:11:56;;;;;;;5.10;3.65;;;14.60;1.00;;;;;;7389225;19;20025;-59
2022/05/15 00:14:26;;;;;;;6.72;3.67;;;14.60;1.00;;;;;;7368490;19;20466;-60
2022/05/15 00:16:56;;;;;;;8.90;3.45;;;14.50;1.00;;;;;;7369303;19;20405;-60
2022/05/15 00:19:26;;;;;;;6.32;3.60;;;14.50;1.00;;;;;;7365516;19;20017;-60
2022/05/15 00:21:56;;;;;;;5.50;3.45;;;14.40;1.00;;;;;;7365153;19;20422;-60
2022/05/15 00:24:29;;;;;;;7.35;3.97;;;14.30;1.00;;;;;;7369195;19;20010;-59
2022/05/15 00:26:59;;;;;;;5.60;3.97;;;14.20;1.00;;;;;;7389619;19;20014;-59
2022/05/15 00:29:29;;;;;;;7.05;4.13;;;13.90;1.00;;;;;;7364812;19;20018;-59
2022/05/15 00:31:59;;;;;;;7.78;3.92;;;13.80;1.00;;;;;;7365692;19;20143;-60
2022/05/15 00:34:29;;;;;;;6.30;3.60;;;13.90;1.00;;;;;;7368369;19;20015;-59
2022/05/15 00:36:59;;;;;;;6.15;3.10;;;14.00;1.00;;;;;;7368713;19;20491;-59
2022/05/15 00:39:32;;;;;;;6.18;2.90;;;14.20;1.00;;;;;;7364529;19;20058;-59
2022/05/15 00:42:01;;;;;;;4.18;2.80;;;14.10;1.00;;;;;;7382316;19;20027;-60
2022/05/15 00:44:31;;;;;;;6.43;3.40;;;14.00;1.00;;;;;;7386774;19;20021;-59
2022/05/15 00:47:01;;;;;;;5.50;3.17;;;13.90;1.00;;;;;;7365655;19;20007;-59
2022/05/15 00:49:31;;;;;;;5.18;3.13;;;13.90;1.00;;;;;;7363802;19;20447;-59
2022/05/15 00:52:05;;;;;;;5.10;3.35;;;13.80;1.00;;;;;;7365925;19;20010;-60
2022/05/15 00:54:42;;;;;;;6.00;4.05;;;13.70;1.00;;;;;;7367760;19;20374;-58
2022/05/15 00:57:16;;;;;;;4.72;3.30;;;13.80;1.00;;;;;;7368813;19;20015;-58
2022/05/15 00:59:51;;;;;;;4.68;3.38;;;13.80;1.00;;;;;;7385919;19;20018;-59
2022/05/15 01:02:23;;;;;;;6.15;3.60;;;13.80;1.00;;;;;;7364639;19;20087;-59
2022/05/15 01:04:53;;;;;;;4.78;3.40;;;13.80;1.00;;;;;;7366556;19;20656;-59
2022/05/15 01:07:23;;;;;;;7.35;3.28;;;13.80;1.00;;;;;;7366535;19;20078;-59
2022/05/15 01:09:55;;;;;;;5.22;3.10;;;13.70;1.00;;;;;;7365501;19;20017;-58
2022/05/15 01:12:25;;;;;;;4.50;3.13;;;13.60;1.00;;;;;;7366109;19;20010;-59
2022/05/15 01:14:59;;;;;;;8.75;4.07;;;13.70;1.00;;;;;;7388540;19;20060;-59
2022/05/15 01:17:29;;;;;;;4.18;3.45;;;13.80;1.00;;;;;;7366428;19;20118;-58
2022/05/15 01:20:04;;;;;;;5.57;3.30;;;13.60;1.00;;;;;;7364198;19;20025;-60
2022/05/15 01:22:37;;;;;;;5.57;3.20;;;13.60;1.00;;;;;;7364586;19;20483;-59
2022/05/15 01:25:14;;;;;;;10.77;3.70;;;13.60;1.00;;;;;;7367630;19;20674;-59
2022/05/15 01:27:50;;;;;;;6.03;3.75;;;13.60;1.00;;;;;;7363847;19;20711;-59
2022/05/15 01:30:20;;;;;;;6.47;3.47;;;13.60;1.00;;;;;;7365328;19;20007;-59
2022/05/15 01:32:50;;;;;;;5.55;3.90;;;13.70;1.00;;;;;;7387023;19;20014;-59
2022/05/15 01:35:21;;;;;;;6.85;3.53;;;13.70;1.00;;;;;;7364844;19;20493;-59
2022/05/15 01:37:53;;;;;;;6.45;3.58;;;13.60;1.00;;;;;;7364361;19;20689;-59
2022/05/15 01:40:23;;;;;;;4.28;3.58;;;13.50;1.00;;;;;;7365569;19;20031;-59
2022/05/15 01:42:53;;;;;;;6.40;3.72;;;13.20;1.00;;;;;;7365648;19;20090;-59
2022/05/15 01:45:24;;;;;;;5.47;3.55;;;13.10;1.00;;;;;;7365257;19;20482;-59
2022/05/15 01:47:53;;;;;;;4.53;3.30;;;13.10;1.00;;;;;;7384412;19;20470;-60
2022/05/15 01:50:24;;;;;;;5.38;3.63;;;13.30;1.00;;;;;;7363942;19;20014;-60
2022/05/15 01:52:57;;;;;;;6.25;2.70;;;13.20;1.00;;;;;;7362996;19;20011;-59
2022/05/15 01:55:27;;;;;;;5.80;2.92;;;13.20;1.00;;;;;;7364237;19;20018;-58
2022/05/15 01:57:57;;;;;;;5.40;2.92;;;13.10;1.00;;;;;;7362001;19;20015;-58
2022/05/15 02:00:28;;;;;;;8.65;3.40;;;13.10;1.00;;;;;;7362849;19;20015;-59
2022/05/15 02:02:58;;;;;;;8.98;3.10;;;13.20;1.00;;;;;;7387064;19;20018;-59
2022/05/15 02:05:28;;;;;;;4.38;3.28;;;13.20;1.00;;;;;;7363739;19;20082;-59
2022/05/15 02:08:01;;;;;;;6.68;3.22;;;13.30;1.00;;;;;;7361071;19;20014;-59
2022/05/15 02:10:31;;;;;;;6.05;3.00;;;13.20;1.00;;;;;;7362799;19;20023;-59
2022/05/15 02:13:01;;;;;;;7.88;3.35;;;13.20;1.00;;;;;;7365005;19;20100;-59
2022/05/15 02:15:31;;;;;;;7.72;3.47;;;13.10;1.00;;;;;;7362444;19;20036;-58
2022/05/15 02:18:01;;;;;;;5.28;3.63;;;13.10;1.00;;;;;;7385235;19;20123;-58
2022/05/15 02:20:31;;;;;;;5.88;3.70;;;13.10;1.00;;;;;;7363637;19;20016;-58
2022/05/15 02:23:03;;;;;;;5.60;3.92;;;13.10;1.00;;;;;;7364730;19;20140;-60
2022/05/15 02:25:34;;;;;;;6.80;3.78;;;13.10;1.00;;;;;;7365512;19;20011;-58
2022/05/15 02:28:04;;;;;;;7.13;4.10;;;13.00;1.00;;;;;;7363508;19;20029;-59
2022/05/15 02:30:34;;;;;;;6.47;4.20;;;13.10;1.00;;;;;;7365631;19;20017;-59
2022/05/15 02:33:03;;;;;;;5.97;4.05;;;13.00;1.00;;;;;;7362864;19;20030;-59
2022/05/15 02:35:33;;;;;;;5.75;4.25;;;13.00;1.00;;;;;;7385390;19;20015;-59
2022/05/15 02:38:06;;;;;;;7.03;4.10;;;13.00;1.00;;;;;;7362971;19;20010;-59
2022/05/15 02:40:36;;;;;;;5.03;4.10;;;13.00;1.00;;;;;;7365882;19;20478;-59
2022/05/15 02:43:06;;;;;;;7.18;4.07;;;12.90;1.00;;;;;;7362553;19;20002;-59
2022/05/15 02:45:35;;;;;;;7.07;4.07;;;12.90;1.00;;;;;;7363974;19;20010;-58
2022/05/15 02:51:03;;;;;;;5.07;4.40;;;12.80;1.00;;;;;;7381749;19;20015;-59
2022/05/15 02:51:05;;;;;;;8.07;3.78;;;12.70;1.00;;;;;;7362440;19;20010;-59
2022/05/15 02:53:39;;;;;;;5.55;3.88;;;12.50;1.00;;;;;;7365527;19;20018;-59
2022/05/15 02:56:10;;;;;;;;;;;12.30;1.00;;;;;;7365406;19;20015;-58
2022/05/15 02:58:40;;;;;;;7.90;4.13;;;12.20;1.00;;;;;;7360309;19;19915;-58
2022/05/15 03:01:10;;;;;;;6.47;3.75;;;12.10;1.00;;;;;;7363720;19;20086;-58
2022/05/15 03:03:42;;;;;;;6.85;3.88;;;12.00;1.00;;;;;;7364373;19;20011;-60
2022/05/15 03:06:13;;;;;;;4.88;3.63;;;12.00;1.00;;;;;;7385699;19;20411;-59
2022/05/15 03:08:47;;;;;;;6.60;4.13;;;11.90;1.00;;;;;;7358289;19;20010;-58
2022/05/15 03:11:17;;;;;;;5.72;4.53;;;11.80;1.00;;;;;;7366070;19;20006;-58
2022/05/15 03:13:48;;;;;;;6.45;4.32;;;11.70;1.00;;;;;;7369959;19;20082;-58
2022/05/15 03:16:19;;;;;;;7.07;4.00;;;11.60;1.00;;;;;;7370799;19;20097;-59
2022/05/15 03:18:51;;;;;;;6.13;4.15;;;11.40;1.30;;;;;;7366605;19;20018;-59
2022/05/15 03:21:31;;;;;;;6.65;4.18;;;11.50;2.50;;;;;;7389864;19;20094;-58
2022/05/15 03:24:06;;;;;;;6.32;4.03;;;11.40;3.30;;;;;;7369504;19;20033;-59
2022/05/15 03:26:38;;;;;;;6.82;3.67;;;11.30;3.70;;;;;;7369023;19;20086;-59
2022/05/15 03:29:10;;;;;;;5.95;4.00;;;11.40;4.60;;;;;;7365611;19;20025;-59
2022/05/15 03:31:40;;;;;;;5.32;4.18;;;11.70;4.60;;;;;;7368157;19;20011;-59
2022/05/15 03:34:12;;;;;;;7.18;4.57;;;11.80;2.90;;;;;;7367795;19;20021;-59
2022/05/15 03:36:47;;;;;;;5.90;4.50;;;11.90;2.80;;;;;;7366806;19;20015;-58
2022/05/15 03:39:20;;;;;;;5.55;4.45;;;11.90;1.70;;;;;;7387225;19;20468;-59
2022/05/15 03:41:51;;;;;;;5.28;4.47;;;11.90;2.10;;;;;;7366927;19;20014;-58
2022/05/15 03:44:22;;;;;;;6.82;4.32;;;11.80;1.60;;;;;;7367623;19;20084;-59
2022/05/15 03:46:51;;;;;;;8.45;4.60;;;11.70;3.10;;;;;;7368344;19;20098;-59
2022/05/15 03:49:21;;;;;;;5.80;4.28;;;11.60;3.30;;;;;;7365627;19;20013;-59
2022/05/15 03:51:51;;;;;;;6.60;4.53;;;11.60;3.60;;;;;;7368127;19;20020;-59
2022/05/15 03:54:24;;;;;;;6.15;4.22;;;11.70;4.00;;;;;;7388657;19;20093;-59
2022/05/15 03:56:53;;;;;;;5.22;4.20;;;11.70;4.00;;;;;;7390872;19;20028;-59
2022/05/15 03:59:26;;;;;;;6.55;4.05;;;11.80;3.60;;;;;;7365668;19;20010;-59
2022/05/15 04:01:56;;;;;;;5.47;4.25;;;12.00;3.80;;;;;;7366786;19;20006;-59
2022/05/15 04:04:27;;;;;;;5.28;4.45;;;12.10;2.70;;;;;;7367944;19;20466;-58
2022/05/15 04:06:57;;;;;;;5.80;4.28;;;12.60;1.00;;;;;;7367857;19;20011;-59
2022/05/15 04:09:30;;;;;;;5.93;4.20;;;13.30;1.00;;;;;;7364977;19;20010;-60
2022/05/15 04:11:59;;;;;;;6.82;4.32;;;13.90;1.00;;;;;;7388189;19;20474;-59
2022/05/15 04:14:30;;;;;;;8.60;4.90;;;14.30;1.00;;;;;;7367641;19;20091;-59
2022/05/15 04:17:00;;;;;;;10.52;4.18;;;14.40;1.00;;;;;;7367303;19;20019;-59
2022/05/15 04:19:29;;;;;;;8.90;4.10;;;15.10;1.00;;;;;;7364131;19;20081;-59
2022/05/15 04:22:02;;;;;;;10.27;4.53;;;15.50;1.00;;;;;;7365662;19;20011;-59
2022/05/15 04:24:35;;;;;;;12.00;4.38;;;15.80;1.00;;;;;;7367324;19;20024;-59
2022/05/15 04:27:06;;;;;;;8.15;4.45;;;15.90;1.00;;;;;;7390155;19;20493;-59
2022/05/15 04:29:36;;;;;;;8.30;4.25;;;16.20;1.00;;;;;;7365889;19;20010;-59
2022/05/15 04:32:07;;;;;;;7.72;4.40;;;16.90;1.00;;;;;;7366186;19;20015;-59
2022/05/15 04:34:37;;;;;;;6.55;4.15;;;17.40;1.00;;;;;;7367732;19;20017;-59
2022/05/15 04:37:07;;;;;;;7.70;4.30;;;17.50;1.00;;;;;;7368394;19;20021;-59
2022/05/15 04:39:39;;;;;;;6.97;3.97;;;17.60;1.00;;;;;;7365225;19;20014;-59
2022/05/15 04:42:10;;;;;;;8.82;4.18;;;17.60;1.00;;;;;;7388436;19;20010;-59
2022/05/15 04:44:41;;;;;;;7.40;3.75;;;17.80;1.00;;;;;;7368467;19;20007;-59
2022/05/15 04:47:10;;;;;;;8.45;3.92;;;18.00;1.00;;;;;;7366796;19;20128;-59
2022/05/15 04:49:40;;;;;;;7.43;3.90;;;17.70;1.00;;;;;;7362089;19;20006;-59
2022/05/15 04:52:10;;;;;;;7.45;3.90;;;18.30;1.00;;;;;;7366711;19;20089;-59
2022/05/15 04:54:42;;;;;;;10.60;4.47;;;18.20;1.00;;;;;;7366830;19;20026;-59
2022/05/15 04:57:12;;;;;;;7.85;3.72;;;18.70;1.00;;;;;;7389734;19;20070;-59
2022/05/15 04:59:42;;;;;;;5.75;3.80;;;18.70;1.00;;;;;;7363548;19;20013;-59
2022/05/15 05:02:12;;;;;;;6.03;3.80;;;18.00;1.00;;;;;;7365097;19;20014;-59
2022/05/15 05:04:42;;;;;;;9.40;3.83;;;18.10;1.00;;;;;;7364623;19;20366;-59
2022/05/15 05:07:12;;;;;;;6.07;4.03;;;17.70;1.00;;;;;;7366058;19;20087;-59
2022/05/15 05:09:45;;;;;;;5.72;3.95;;;17.80;1.00;;;;;;7363422;19;20018;-59
2022/05/15 05:12:15;;;;;;;4.45;3.58;;;17.60;1.00;;;;;;7388103;19;20010;-59
2022/05/15 05:14:44;;;;;;;5.32;4.22;;;17.80;1.00;;;;;;7366263;19;20019;-59
2022/05/15 05:17:15;;;;;;;6.22;3.90;;;17.80;1.00;;;;;;7366129;19;20010;-59
2022/05/15 05:19:45;;;;;;;5.85;3.65;;;18.20;1.00;;;;;;7364458;19;20013;-59
2022/05/15 05:22:15;;;;;;;7.50;3.58;;;17.30;1.00;;;;;;7365143;19;20006;-60
2022/05/15 05:24:50;;;;;;;4.75;3.15;;;18.30;1.00;;;;;;7365927;19;20493;-59
2022/05/15 05:27:20;;;;;;;7.15;3.38;;;18.70;1.00;;;;;;7388899;19;20016;-59
2022/05/15 05:29:50;;;;;;;7.13;2.97;;;19.60;1.00;;;;;;7362679;19;20014;-59
2022/05/15 05:32:20;;;;;;;4.72;3.20;;;20.00;1.00;;;;;;7362308;19;20010;-59
2022/05/15 05:34:50;;;;;;;7.18;2.78;;;20.30;1.00;;;;;;7364814;19;20475;-60
2022/05/15 05:37:20;;;;;;;6.47;3.17;;;20.50;1.00;;;;;;7367687;19;20687;-59
2022/05/15 05:39:53;;;;;;;7.32;3.30;;;19.40;1.00;;;;;;7363489;19;20391;-59
2022/05/15 05:42:23;;;;;;;7.30;3.20;;;19.60;1.00;;;;;;7367724;19;20077;-60
2022/05/15 05:44:52;;;;;;;10.43;3.55;;;19.80;1.00;;;;;;7387465;19;20010;-59
2022/05/15 05:47:26;;;;;;;8.20;3.92;;;19.70;1.00;;;;;;7365068;19;20094;-60
2022/05/15 05:49:56;;;;;;;11.70;3.90;;;19.90;1.00;;;;;;7364242;19;20010;-60
2022/05/15 05:52:26;;;;;;;6.68;3.58;;;18.60;1.00;;;;;;7364538;19;20015;-59
2022/05/15 05:54:59;;;;;;;7.75;2.90;;;17.20;1.00;;;;;;7364902;19;20010;-59
2022/05/15 05:57:28;;;;;;;4.55;3.20;;;17.30;1.00;;;;;;7364046;19;20081;-59
2022/05/15 05:59:58;;;;;;;5.07;3.13;;;17.20;1.00;;;;;;7384180;19;20017;-59
2022/05/15 06:02:28;;;;;;;6.57;3.17;;;16.80;1.00;;;;;;7362489;19;20018;-59
2022/05/15 06:04:55;;;;;;;4.15;2.67;;;16.80;1.00;;;;;;7364223;19;20010;-59
2022/05/15 06:07:28;;;;;;;5.13;2.88;;;16.80;1.00;;;;;;7365014;19;20027;-59
2022/05/15 06:10:00;;;;;;;7.18;3.10;;;16.90;1.00;;;;;;7363348;19;20011;-59
2022/05/15 06:12:30;;;;;;;5.10;2.75;;;17.40;1.00;;;;;;7363721;19;20007;-59
2022/05/15 06:15:00;;;;;;;6.03;2.97;;;18.10;1.00;;;;;;7386135;19;20372;-59
2022/05/15 06:17:32;;;;;;;3.63;3.00;;;19.30;1.00;;;;;;7361274;19;20013;-59
2022/05/15 06:20:06;;;;;;;5.10;2.90;;;20.30;1.00;;;;;;7363791;19;20510;-60
2022/05/15 06:22:36;;;;;;;8.20;2.65;;;20.70;1.00;;;;;;7364520;19;20518;-59
2022/05/15 06:25:09;;;;;;;5.68;3.05;;;20.70;1.00;;;;;;7364271;19;20089;-60
2022/05/15 06:27:40;;;;;;;6.18;3.00;;;19.90;1.00;;;;;;7362994;19;20098;-61
2022/05/15 06:30:12;;;;;;;7.50;3.17;;;19.70;1.00;;;;;;7383591;19;20014;-60
2022/05/15 06:32:43;;;;;;;4.95;3.13;;;19.50;1.00;;;;;;7362353;19;20626;-60
2022/05/15 06:35:15;;;;;;;6.30;3.20;;;19.00;1.00;;;;;;7363314;19;20003;-60
2022/05/15 06:37:45;;;;;;;9.43;3.03;;;18.10;1.00;;;;;;7362654;19;20089;-60
2022/05/15 06:40:18;;;;;;;7.60;3.17;;;18.00;1.00;;;;;;7363067;19;20093;-59
2022/05/15 06:42:48;;;;;;;8.40;2.73;;;17.80;1.00;;;;;;7365613;19;20017;-59
2022/05/15 06:45:18;;;;;;;5.32;2.90;;;18.00;1.00;;;;;;7391799;19;20308;-60
2022/05/15 06:47:48;;;;;;;3.40;2.75;;;17.80;1.00;;;;;;7368989;19;20010;-58
2022/05/15 06:50:18;;;;;;;5.72;2.97;;;17.80;1.00;;;;;;7367388;19;20553;-59
2022/05/15 06:52:49;;;;;;;6.32;2.67;;;17.80;1.00;;;;;;7370620;19;20043;-59
2022/05/15 06:55:23;;;;;;;5.07;2.90;;;17.80;1.00;;;;;;7369906;19;20026;-59
2022/05/15 06:57:51;;;;;;;5.90;3.10;;;17.50;1.00;;;;;;7368215;19;20010;-59
2022/05/15 07:00:25;;;;;;;5.78;2.83;;;17.80;1.00;;;;;;7391680;19;20014;-59
2022/05/15 07:02:54;;;;;;;6.88;3.42;;;17.50;1.00;;;;;;7370756;19;20013;-59
2022/05/15 07:05:27;;;;;;;9.50;3.10;;;18.00;1.00;;;;;;7368981;19;20653;-59
2022/05/15 07:07:57;;;;;;;4.93;3.00;;;18.40;1.00;;;;;;7367890;19;20018;-59
2022/05/15 07:10:30;;;;;;;3.92;2.72;;;18.60;1.00;;;;;;7369272;19;20362;-60
2022/05/15 07:12:59;;;;;;;5.93;3.00;;;18.40;1.00;;;;;;7368772;19;20057;-59
2022/05/15 07:15:31;;;;;;;4.32;2.85;;;18.80;1.00;;;;;;7369027;19;20034;-59
2022/05/15 07:18:01;;;;;;;3.97;2.40;;;19.00;1.00;;;;;;7390243;19;20011;-59
2022/05/15 07:20:30;;;;;;;7.20;2.88;;;18.90;1.00;;;;;;7370518;19;20013;-60
2022/05/15 07:23:00;;;;;;;4.45;2.47;;;19.30;1.00;;;;;;7370230;19;20011;-58
2022/05/15 07:25:33;;;;;;;3.33;2.55;;;19.30;1.00;;;;;;7369911;19;20014;-60
2022/05/15 07:28:03;;;;;;;5.75;2.40;;;19.60;1.00;;;;;;7369241;19;20414;-59
2022/05/15 07:30:33;;;;;;;4.97;2.40;;;19.10;1.00;;;;;;7367331;19;20014;-59
2022/05/15 07:33:03;;;;;;;6.05;2.40;;;19.60;1.00;;;;;;7390518;19;20082;-59
2022/05/15 07:35:33;;;;;;;6.45;2.35;;;19.80;1.00;;;;;;7368670;19;20010;-60
2022/05/15 07:38:03;;;;;;;5.10;2.67;;;20.40;1.00;;;;;;7367018;19;20382;-60
2022/05/15 07:40:35;;;;;;;3.63;2.25;;;20.30;1.00;;;;;;7370110;19;20086;-60
2022/05/15 07:43:07;;;;;;;6.03;2.47;;;20.20;1.00;;;;;;7368639;19;20027;-60
2022/05/15 07:45:37;;;;;;;3.65;1.90;;;20.10;1.00;;;;;;7369402;19;20003;-60
2022/05/15 07:48:09;;;;;;;4.20;2.30;;;20.00;1.00;;;;;;7388757;19;20082;-60
2022/05/15 07:50:40;;;;;;;8.43;2.22;;;20.40;1.00;;;;;;7369391;19;20007;-60
2022/05/15 07:53:10;;;;;;;3.88;2.63;;;21.00;1.00;;;;;;7365685;19;20476;-60
2022/05/15 07:55:42;;;;;;;5.80;2.38;;;20.60;1.00;;;;;;7367325;19;20021;-60
2022/05/15 07:58:12;;;;;;;5.65;2.25;;;20.70;1.00;;;;;;7366528;19;20097;-60
2022/05/15 08:00:42;;;;;;;3.72;2.40;;;20.60;1.00;;;;;;7370590;19;20006;-60
2022/05/15 08:03:15;;;;;;;4.10;2.30;;;20.80;1.00;;;;;;7390126;19;20010;-60
2022/05/15 08:08:27;;;;;;;6.10;2.22;;;20.80;1.00;;;;;;7363910;19;20081;-59
2022/05/15 08:11:00;;;;;;;2.80;2.00;;;20.90;1.00;;;;;;7369806;19;20010;-59
2022/05/15 08:13:31;;;;;;;3.42;2.28;;;21.20;1.00;;;;;;7366743;19;20485;-59
2022/05/15 08:16:01;;;;;;;5.85;2.40;;;21.20;1.00;;;;;;7368444;19;20073;-59
2022/05/15 08:23:59;;;;;;;5.07;2.10;;;21.40;1.00;;;;;;7368802;19;20006;-59
2022/05/15 08:26:32;;;;;;;4.47;2.30;;;21.10;1.00;;;;;;7368475;19;20007;-59
2022/05/15 08:29:02;;;;;;;5.15;2.35;;;21.50;1.00;;;;;;7364044;19;20089;-59
2022/05/15 08:31:32;;;;;;;5.70;2.30;;;21.80;1.00;;;;;;7366849;19;20021;-60
2022/05/15 08:34:02;;;;;;;3.03;2.00;;;22.10;1.00;;;;;;7369390;19;20014;-58
2022/05/15 08:36:32;;;;;;;2.63;1.80;;;22.10;1.00;;;;;;7370095;19;20006;-59
2022/05/15 08:39:02;;;;;;;4.57;2.00;;;21.60;1.00;;;;;;7384914;19;20014;-59
2022/05/15 08:41:46;;;;;;;5.57;2.17;;;21.70;1.00;;;;;;7366115;19;20010;-58
2022/05/15 08:44:18;;;;;;;5.18;1.90;;;21.80;1.00;;;;;;7367463;19;20028;-58
2022/05/15 08:47:17;;;;;;;4.05;1.77;;;22.30;1.00;;;;;;7369235;19;20011;-58
2022/05/15 08:49:50;;;;;;;2.72;1.70;;;22.30;1.00;;;;;;7361970;19;20085;-59
2022/05/15 08:52:26;;;;;;;6.00;1.93;;;22.40;1.00;;;;;;7366793;19;20467;-60
2022/05/15 08:55:03;;;;;;;5.05;1.90;;;22.50;1.00;;;;;;7368074;19;20070;-60
2022/05/15 08:57:47;;;;;;;3.20;2.10;;;23.00;1.00;;;;;;7365605;19;20010;-60
2022/05/15 09:00:24;;;;;;;4.30;2.08;;;23.30;1.00;;;;;;7387146;19;20490;-60
2022/05/15 09:02:53;;;;;;;4.07;1.90;;;22.70;1.00;;;;;;7366466;19;20014;-60
2022/05/15 09:05:27;;;;;;;4.30;2.20;;;22.50;1.00;;;;;;7365325;19;20078;-59
2022/05/15 09:08:16;;;;;;;5.80;2.00;;;22.70;1.00;;;;;;7363212;19;20011;-59
2022/05/15 09:10:56;;;;;;;3.25;1.90;;;22.80;1.00;;;;;;7366473;19;20021;-59
2022/05/15 09:13:35;;;;;;;5.57;2.25;;;22.90;1.00;;;;;;7366254;19;20573;-59
2022/05/15 09:16:06;;;;;;;3.88;1.88;;;22.90;1.00;;;;;;7366508;19;20089;-59
2022/05/15 09:18:37;;;;;;;5.25;1.98;;;23.20;1.00;;;;;;7363032;19;20074;-61
2022/05/15 09:21:12;;;;;;;3.47;2.00;;;23.00;1.00;;;;;;7388946;19;20089;-58
2022/05/15 09:23:48;;;;;;;3.45;1.90;;;23.20;1.00;;;;;;7363797;19;20010;-59
2022/05/15 09:26:22;;;;;;;4.28;2.00;;;23.20;1.00;;;;;;7367278;19;20006;-60
2022/05/15 09:28:58;;;;;;;3.92;1.70;;;23.60;1.00;;;;;;7362336;19;20021;-60
2022/05/15 09:31:32;;;;;;;3.53;1.70;;;23.70;1.00;;;;;;7366216;19;20106;-59
2022/05/15 09:34:05;;;;;;;4.70;1.70;;;23.90;1.00;;;;;;7367179;19;20007;-59
2022/05/15 09:36:44;;;;;;;3.55;1.60;;;23.60;1.00;;;;;;7367329;19;20089;-60
2022/05/15 09:39:22;;;;;;;2.75;1.55;;;23.70;1.00;;;;;;7382742;19;20014;-60
2022/05/15 09:44:47;;;;;;;3.78;1.83;;;23.80;1.00;;;;;;7364725;19;20013;-61
2022/05/15 09:47:32;;;;;;;3.65;1.65;;;24.00;1.00;;;;;;7364007;19;20531;-61
2022/05/15 09:50:02;;;;;;;3.85;1.80;;;23.60;1.00;;;;;;7364895;19;20010;-59
2022/05/15 09:52:37;;;;;;;2.53;1.52;;;23.90;1.00;;;;;;7362686;19;20064;-60
2022/05/15 09:55:15;;;;;;;3.30;1.73;;;24.00;1.00;;;;;;7366622;19;20025;-60
2022/05/15 09:57:56;;;;;;;4.57;1.67;;;24.10;1.00;;;;;;7364470;19;20036;-60
2022/05/15 10:00:31;;;;;;;5.40;2.00;;;23.80;1.00;;;;;;7364404;19;20021;-60
2022/05/15 10:03:04;;;;;;;3.72;1.40;;;23.90;1.00;;;;;;7386556;19;20019;-59
2022/05/15 10:05:37;;;;;;;5.43;1.60;;;23.70;1.00;;;;;;7364978;19;20055;-59
2022/05/15 10:08:10;;;;;;;3.55;1.48;;;23.90;1.00;;;;;;7361778;19;20263;-59
2022/05/15 10:10:46;;;;;;;2.90;1.50;;;24.00;1.00;;;;;;7365680;19;20081;-59
2022/05/15 10:13:25;;;;;;;5.93;1.70;;;24.10;1.00;;;;;;7363444;19;20871;-59
2022/05/15 10:16:02;;;;;;;2.80;1.50;;;24.30;1.00;;;;;;7364663;19;20500;-60
2022/05/15 10:18:48;;;;;;;5.47;1.85;;;24.10;1.00;;;;;;7360135;19;20030;-60
2022/05/15 10:21:19;;;;;;;2.22;1.60;;;24.50;1.00;;;;;;7387058;19;20011;-60
2022/05/15 10:23:56;;;;;;;2.72;1.50;;;24.30;1.00;;;;;;7362697;19;20010;-60
2022/05/15 10:26:31;;;;;;;3.55;1.60;;;24.50;1.00;;;;;;7365525;19;20018;-59
2022/05/15 10:29:10;;;;;;;3.90;1.40;;;24.30;1.00;;;;;;7359737;19;20090;-60
2022/05/15 10:31:49;;;;;;;4.75;1.65;;;24.60;1.00;;;;;;7364637;19;20026;-60
2022/05/15 10:34:25;;;;;;;5.10;1.63;;;24.90;1.00;;;;;;7364781;19;20010;-59
2022/05/15 10:37:08;;;;;;;2.42;1.58;;;24.60;1.00;;;;;;7365351;19;20027;-59
2022/05/15 10:40:04;;;;;;;4.63;1.70;;;25.10;1.00;;;;;;7359390;19;20091;-60
2022/05/15 10:42:46;;;;;;;2.75;1.67;;;25.20;1.00;;;;;;7359244;19;20010;-59
2022/05/15 10:45:22;;;;;;;3.35;1.73;;;25.00;1.00;;;;;;7383259;19;20014;-59
2022/05/15 10:48:07;;;;;;;2.92;1.77;;;24.20;1.00;;;;;;7359266;19;20017;-60
2022/05/15 10:50:49;;;;;;;2.35;1.50;;;25.00;1.00;;;;;;7363068;19;20010;-60
2022/05/15 10:59:31;;;;;;;2.03;1.70;;;24.50;1.00;;;;;;7356748;19;20062;-59
2022/05/15 11:02:14;;;;;;;5.35;2.28;;;24.90;1.00;;;;;;7361424;19;20020;-61
2022/05/15 11:04:52;;;;;;;3.47;1.70;;;25.20;1.00;;;;;;7361083;19;20011;-59
2022/05/15 11:07:27;;;;;;;2.97;1.92;;;24.90;1.00;;;;;;7362880;19;20098;-59
2022/05/15 11:10:10;;;;;;;4.65;1.73;;;25.00;1.00;;;;;;7359927;19;20011;-59
2022/05/15 11:12:55;;;;;;;5.90;1.98;;;25.10;1.00;;;;;;7359599;19;20016;-59
2022/05/15 11:15:39;;;;;;;3.90;1.80;;;25.10;1.00;;;;;;7360548;19;20020;-60
2022/05/15 11:18:37;;;;;;;2.35;1.50;;;25.20;1.00;;;;;;7379859;19;20019;-60
2022/05/15 11:21:15;;;;;;;3.58;1.30;;;25.40;1.00;;;;;;7363207;19;20019;-60
2022/05/15 11:23:50;;;;;;;3.28;1.65;;;25.10;1.00;;;;;;7359913;19;20022;-59
2022/05/15 11:26:25;;;;;;;7.15;2.00;;;25.30;1.00;;;;;;7361360;19;20022;-60
2022/05/15 11:28:58;;;;;;;3.08;1.50;;;25.20;1.00;;;;;;7355748;19;20078;-60
2022/05/15 11:31:32;;;;;;;3.70;1.50;;;25.00;1.00;;;;;;7369809;19;20089;-61
2022/05/15 11:34:04;;;;;;;5.85;1.77;;;25.10;1.00;;;;;;7367227;19;20027;-60
2022/05/15 11:36:44;;;;;;;2.65;1.83;;;25.20;1.00;;;;;;7367991;19;20015;-60
2022/05/15 11:39:27;;;;;;;3.58;1.60;;;25.20;1.00;;;;;;7382128;19;20007;-59
2022/05/15 11:42:20;;;;;;;4.32;1.65;;;25.40;1.00;;;;;;7366777;19;20328;-60
2022/05/15 11:44:51;;;;;;;10.13;2.08;;;25.70;1.00;;;;;;7367809;19;20020;-60
2022/05/15 11:47:39;;;;;;;2.47;1.30;;;25.30;1.00;;;;;;7369816;19;20011;-59
2022/05/15 11:50:16;;;;;;;3.45;1.88;;;25.30;1.00;;;;;;7365097;19;20097;-59
2022/05/15 11:53:12;;;;;;;4.72;2.22;;;25.40;1.00;;;;;;7366831;19;20021;-59
2022/05/15 11:55:46;;;;;;;3.00;1.65;;;25.40;1.00;;;;;;7367458;19;19999;-59
2022/05/15 11:58:26;;;;;;;3.90;1.80;;;25.40;1.00;;;;;;7361405;19;20078;-60
2022/05/15 12:01:21;;;;;;;2.38;1.50;;;25.70;1.00;;;;;;7370109;19;20010;-60
2022/05/15 12:03:54;;;;;;;5.78;1.85;;;25.50;1.00;;;;;;7365362;19;20478;-59
2022/05/15 12:06:27;;;;;;;3.25;1.60;;;25.70;1.00;;;;;;7367974;19;20026;-60
2022/05/15 12:09:26;;;;;;;3.17;1.33;;;26.20;1.00;;;;;;7384027;19;20010;-61
2022/05/15 12:12:46;;;;;;;4.10;1.70;;;26.10;1.00;;;;;;7364873;19;20021;-60
2022/05/15 12:15:34;;;;;;;4.15;1.70;;;25.90;1.00;;;;;;7263626;19;2004270;-60
2022/05/15 12:18:21;;;;;;;3.22;1.80;;;26.20;1.00;;;;;;7386098;19;20508;-60
2022/05/15 12:20:54;;;;;;;5.10;1.67;;;26.10;1.00;;;;;;7366094;19;20053;-60
2022/05/15 12:23:26;;;;;;;2.70;1.60;;;26.00;1.00;;;;;;7364432;19;20474;-61
2022/05/15 12:25:59;;;;;;;2.53;1.60;;;26.20;1.00;;;;;;7367019;19;20104;-59
2022/05/15 12:28:55;;;;;;;3.53;1.53;;;25.80;1.00;;;;;;7361883;19;20014;-60
2022/05/15 12:31:31;;;;;;;3.83;2.00;;;26.00;1.00;;;;;;7366283;19;20021;-60
2022/05/15 12:34:14;;;;;;;3.28;1.65;;;26.10;1.00;;;;;;7362639;19;20081;-60
2022/05/15 12:36:47;;;;;;;3.17;1.73;;;26.20;1.00;;;;;;7366387;19;20018;-60
2022/05/15 12:39:25;;;;;;;3.28;1.60;;;26.30;1.00;;;;;;7384797;19;20187;-60
2022/05/15 12:41:55;;;;;;;4.22;1.52;;;26.40;1.00;;;;;;7365853;19;20020;-60
2022/05/15 12:44:37;;;;;;;2.88;1.70;;;26.30;1.00;;;;;;7365233;19;20022;-60
2022/05/15 12:47:09;;;;;;;3.08;1.90;;;26.00;1.00;;;;;;7366343;19;20057;-60
2022/05/15 12:49:43;;;;;;;4.82;1.88;;;25.90;1.00;;;;;;7360066;19;20085;-60
2022/05/15 12:52:27;;;;;;;5.40;1.70;;;26.10;1.00;;;;;;7362711;19;20014;-60
2022/05/15 12:55:00;;;;;;;2.55;1.40;;;26.50;1.00;;;;;;7364211;19;20006;-60
2022/05/15 12:57:30;;;;;;;3.00;1.50;;;26.50;1.00;;;;;;7363784;19;20018;-60
2022/05/15 13:00:13;;;;;;;2.70;1.67;;;26.60;1.00;;;;;;7383184;19;20022;-60
2022/05/15 13:02:44;;;;;;;2.47;1.75;;;26.50;1.00;;;;;;7363609;19;20384;-60
2022/05/15 13:05:27;;;;;;;3.50;1.40;;;26.30;1.00;;;;;;7363979;19;20094;-60
2022/05/15 13:07:59;;;;;;;5.57;1.75;;;26.30;1.00;;;;;;7362939;19;20006;-60
2022/05/15 13:10:35;;;;;;;5.07;1.50;;;26.60;1.00;;;;;;7365011;19;20113;-60
2022/05/15 13:13:12;;;;;;;6.15;1.55;;;26.70;1.00;;;;;;7364027;19;20493;-60
2022/05/15 13:15:52;;;;;;;3.80;1.95;;;26.50;1.00;;;;;;7366164;19;20022;-61
2022/05/15 13:18:25;;;;;;;4.28;1.85;;;26.50;1.00;;;;;;7377268;19;20020;-60
2022/05/15 13:20:58;;;;;;;2.65;1.48;;;26.70;1.00;;;;;;7390042;19;20136;-60
2022/05/15 13:23:33;;;;;;;4.20;1.60;;;26.60;1.00;;;;;;7363783;19;20509;-60
2022/05/15 13:26:05;;;;;;;2.63;1.60;;;26.60;1.00;;;;;;7364877;19;20062;-60
2022/05/15 13:28:35;;;;;;;3.85;1.95;;;26.40;1.00;;;;;;7360981;19;20013;-60
2022/05/15 13:31:11;;;;;;;3.33;1.60;;;26.60;1.00;;;;;;7364357;19;20174;-60
2022/05/15 13:33:47;;;;;;;2.97;1.60;;;26.70;1.00;;;;;;7362007;19;20015;-59
2022/05/15 13:36:18;;;;;;;4.53;1.83;;;26.40;1.00;;;;;;7389556;19;20014;-59
2022/05/15 13:44:33;;;;;;;2.45;1.70;;;27.10;1.00;;;;;;7364295;19;20027;-60
2022/05/15 13:47:10;;;;;;;4.45;1.77;;;26.60;1.00;;;;;;7367019;19;20075;-60
2022/05/15 13:49:42;;;;;;;3.65;1.70;;;26.70;1.00;;;;;;7359366;19;20482;-60
2022/05/15 13:52:37;;;;;;;9.98;3.50;;;26.70;1.00;;;;;;7362190;19;20457;-59
2022/05/15 13:55:10;;;;;;;4.32;1.85;;;26.60;1.00;;;;;;7360604;19;20014;-60